AKT119 CYOW-CYFB
Flight info
| Callsign | AKT119 |
|---|---|
| Flight time | N/A |
| Altitude | 37000 |
| Route | RADEN DCT HENDY DCT YFY |
| Aircraft | B737/M-SDE2E3FGHIRWXY/LB1 |
Departure
| Time | 2026-04-28 17:23 |
|---|---|
| Airport | Ottawa Macdonald-Cartier International Airport (CYOW) |
Arrival
| Time | N/A |
|---|---|
| Airport | Iqaluit Airport (CYFB) |
| Time | Latitude | Longitude | Altitude | Speed | Heading |
|---|---|---|---|---|---|
| 2026-04-28 17:13 | 45.32072 | -75.66624 | 381 ft | 0 kts | 36° |
| 2026-04-28 17:14 | 45.32063 | -75.66633 | 380 ft | 2 kts | 36° |
| 2026-04-28 17:14 | 45.32050 | -75.66647 | 380 ft | 2 kts | 36° |
| 2026-04-28 17:14 | 45.32036 | -75.66660 | 379 ft | 2 kts | 36° |
| 2026-04-28 17:15 | 45.32023 | -75.66674 | 379 ft | 2 kts | 36° |
| 2026-04-28 17:15 | 45.32010 | -75.66687 | 379 ft | 2 kts | 36° |
| 2026-04-28 17:15 | 45.31997 | -75.66701 | 379 ft | 2 kts | 36° |
| 2026-04-28 17:15 | 45.31984 | -75.66715 | 379 ft | 2 kts | 36° |
| 2026-04-28 17:16 | 45.31983 | -75.66715 | 379 ft | 0 kts | 36° |
| 2026-04-28 17:17 | 45.31985 | -75.66713 | 379 ft | 1 kts | 36° |
| 2026-04-28 17:17 | 45.32005 | -75.66721 | 378 ft | 5 kts | 309° |
| 2026-04-28 17:18 | 45.31998 | -75.66792 | 377 ft | 10 kts | 259° |
| 2026-04-28 17:18 | 45.32007 | -75.66888 | 377 ft | 10 kts | 301° |
| 2026-04-28 17:18 | 45.32048 | -75.66965 | 376 ft | 10 kts | 307° |
| 2026-04-28 17:18 | 45.32091 | -75.67050 | 373 ft | 14 kts | 306° |
| 2026-04-28 17:19 | 45.32157 | -75.67177 | 370 ft | 17 kts | 306° |
| 2026-04-28 17:19 | 45.32212 | -75.67260 | 370 ft | 11 kts | 334° |
| 2026-04-28 17:19 | 45.32269 | -75.67326 | 369 ft | 12 kts | 307° |
| 2026-04-28 17:19 | 45.32329 | -75.67441 | 369 ft | 16 kts | 306° |
| 2026-04-28 17:20 | 45.32393 | -75.67565 | 369 ft | 15 kts | 306° |
| 2026-04-28 17:20 | 45.32454 | -75.67683 | 368 ft | 15 kts | 307° |
| 2026-04-28 17:20 | 45.32514 | -75.67798 | 370 ft | 14 kts | 306° |
| 2026-04-28 17:20 | 45.32572 | -75.67913 | 368 ft | 15 kts | 306° |
| 2026-04-28 17:21 | 45.32633 | -75.68031 | 368 ft | 14 kts | 307° |
| 2026-04-28 17:21 | 45.32692 | -75.68143 | 361 ft | 14 kts | 306° |
| 2026-04-28 17:21 | 45.32748 | -75.68250 | 359 ft | 13 kts | 306° |
| 2026-04-28 17:22 | 45.32678 | -75.68433 | 355 ft | 14 kts | 216° |
| 2026-04-28 17:22 | 45.32608 | -75.68439 | 354 ft | 13 kts | 131° |
| 2026-04-28 17:22 | 45.32465 | -75.68164 | 362 ft | 68 kts | 126° |
| 2026-04-28 17:23 | 45.31383 | -75.66119 | 433 ft | 177 kts | 129° |
| 2026-04-28 17:23 | 45.30588 | -75.64668 | 988 ft | 191 kts | 128° |
| 2026-04-28 17:23 | 45.29800 | -75.63171 | 1683 ft | 200 kts | 127° |
| 2026-04-28 17:23 | 45.28966 | -75.61538 | 2455 ft | 210 kts | 126° |
| 2026-04-28 17:24 | 45.28097 | -75.59824 | 3265 ft | 216 kts | 126° |
| 2026-04-28 17:24 | 45.27198 | -75.58045 | 3987 ft | 233 kts | 126° |
| 2026-04-28 17:24 | 45.26180 | -75.56032 | 4383 ft | 263 kts | 124° |
| 2026-04-28 17:24 | 45.25489 | -75.53606 | 5258 ft | 272 kts | 97° |
| 2026-04-28 17:25 | 45.25675 | -75.50944 | 6273 ft | 275 kts | 70° |
| 2026-04-28 17:25 | 45.28352 | -75.47218 | 8187 ft | 283 kts | 17° |
| 2026-04-28 17:25 | 45.30316 | -75.46957 | 9111 ft | 287 kts | 351° |
| 2026-04-28 17:26 | 45.32213 | -75.47820 | 10023 ft | 289 kts | 335° |
| 2026-04-28 17:26 | 45.34078 | -75.49050 | 10612 ft | 306 kts | 334° |
| 2026-04-28 17:26 | 45.36065 | -75.50415 | 11055 ft | 324 kts | 333° |
| 2026-04-28 17:26 | 45.38118 | -75.51842 | 11845 ft | 331 kts | 333° |
| 2026-04-28 17:27 | 45.40190 | -75.53290 | 12711 ft | 334 kts | 333° |
| 2026-04-28 17:27 | 45.42303 | -75.54723 | 13537 ft | 339 kts | 339° |
| 2026-04-28 17:27 | 45.44620 | -75.55455 | 14362 ft | 344 kts | 352° |
| 2026-04-28 17:27 | 45.47023 | -75.55586 | 15211 ft | 349 kts | 4° |
| 2026-04-28 17:28 | 45.49451 | -75.55199 | 16059 ft | 353 kts | 7° |
| 2026-04-28 17:28 | 45.54371 | -75.54126 | 17653 ft | 362 kts | 9° |
| 2026-04-28 17:28 | 45.56871 | -75.53560 | 18427 ft | 366 kts | 8° |
| 2026-04-28 17:29 | 45.59403 | -75.52995 | 19183 ft | 371 kts | 8° |
| 2026-04-28 17:29 | 45.61968 | -75.52434 | 19923 ft | 375 kts | 8° |
| 2026-04-28 17:29 | 45.64563 | -75.51874 | 20650 ft | 379 kts | 8° |
| 2026-04-28 17:30 | 45.69801 | -75.50760 | 22023 ft | 387 kts | 8° |
| 2026-04-28 17:30 | 45.75158 | -75.49632 | 23317 ft | 395 kts | 8° |
| 2026-04-28 17:31 | 45.79794 | -75.48658 | 24362 ft | 402 kts | 8° |
| 2026-04-28 17:32 | 45.85381 | -75.47484 | 25444 ft | 412 kts | 8° |
| 2026-04-28 17:32 | 45.88266 | -75.47252 | 25310 ft | 417 kts | 353° |
| 2026-04-28 17:32 | 45.91001 | -75.48262 | 25268 ft | 410 kts | 335° |
| 2026-04-28 17:32 | 45.93363 | -75.50456 | 25268 ft | 404 kts | 316° |
| 2026-04-28 17:33 | 45.95038 | -75.53446 | 25268 ft | 406 kts | 298° |
| 2026-04-28 17:33 | 45.96028 | -75.57226 | 25266 ft | 406 kts | 280° |
| 2026-04-28 17:33 | 45.96143 | -75.61172 | 25131 ft | 397 kts | 262° |
| 2026-04-28 17:33 | 45.95748 | -75.63724 | 24827 ft | 393 kts | 250° |
| 2026-04-28 17:34 | 45.95258 | -75.65405 | 24515 ft | 389 kts | 242° |